createdAt,value
2022-12-16T00:04:04.426Z,0.00
2022-12-16T00:19:04.692Z,0.00
2022-12-16T00:34:04.892Z,0.00
2022-12-16T00:49:04.708Z,0.00
2022-12-16T01:04:07.838Z,0.00
2022-12-16T01:19:04.687Z,0.00
2022-12-16T01:34:05.187Z,0.00
2022-12-16T01:49:04.772Z,0.00
2022-12-16T02:04:06.020Z,0.00
2022-12-16T02:19:05.055Z,0.00
2022-12-16T02:34:04.758Z,0.00
2022-12-16T02:49:05.199Z,0.00
2022-12-16T03:04:04.904Z,0.00
2022-12-16T03:19:05.043Z,0.00
2022-12-16T03:34:04.898Z,0.00
2022-12-16T03:49:05.075Z,0.00
2022-12-16T04:04:05.042Z,0.00
2022-12-16T04:19:05.297Z,0.00
2022-12-16T04:34:06.310Z,0.00
2022-12-16T04:49:05.219Z,0.00
2022-12-16T05:04:05.309Z,0.00
2022-12-16T05:19:05.101Z,0.00
2022-12-16T05:34:05.215Z,0.00
2022-12-16T05:49:05.195Z,0.00
2022-12-16T06:04:05.291Z,0.00
2022-12-16T06:19:05.334Z,0.00
2022-12-16T06:34:05.451Z,0.00
2022-12-16T06:49:05.253Z,0.00
2022-12-16T07:04:05.597Z,0.00
2022-12-16T07:19:05.621Z,0.00
2022-12-16T07:34:05.086Z,0.00
2022-12-16T07:49:05.211Z,0.00
2022-12-16T08:04:05.459Z,0.00
2022-12-16T08:19:10.852Z,0.00
2022-12-16T08:34:05.335Z,0.00
2022-12-16T08:49:05.363Z,0.00
2022-12-16T09:04:05.438Z,0.00
2022-12-16T09:19:05.471Z,0.00
2022-12-16T09:34:05.538Z,0.00
2022-12-16T09:49:05.488Z,0.00
2022-12-16T10:04:06.717Z,0.00
2022-12-16T10:19:05.594Z,0.27
2022-12-16T10:34:06.478Z,0.46
2022-12-16T10:49:05.968Z,0.68
2022-12-16T11:04:05.676Z,0.50
2022-12-16T11:19:06.065Z,0.06
2022-12-16T11:34:05.960Z,0.22
2022-12-16T11:49:05.630Z,0.29
2022-12-16T12:04:05.777Z,0.16
2022-12-16T12:19:05.749Z,0.40
2022-12-16T12:34:05.925Z,0.14
2022-12-16T12:49:05.925Z,0.15
2022-12-16T13:04:06.881Z,0.08
2022-12-16T13:19:09.487Z,0.06
2022-12-16T13:34:05.800Z,0.34
2022-12-16T13:49:05.948Z,1.23
2022-12-16T14:04:06.179Z,1.09
2022-12-16T14:19:06.002Z,1.06
2022-12-16T14:34:06.124Z,0.48
2022-12-16T14:49:06.046Z,0.77
2022-12-16T15:04:06.280Z,0.58
2022-12-16T15:19:06.172Z,0.17
2022-12-16T15:34:06.110Z,0.64
2022-12-16T15:49:07.926Z,0.71
2022-12-16T16:04:06.398Z,0.09
2022-12-16T16:19:06.249Z,0.18
2022-12-16T16:34:06.297Z,0.17
2022-12-16T16:49:06.446Z,0.22
2022-12-16T17:04:06.494Z,0.27
2022-12-16T17:19:06.400Z,0.65
2022-12-16T17:34:06.652Z,0.69
2022-12-16T17:49:06.567Z,1.24
2022-12-16T18:04:06.561Z,1.38
2022-12-16T18:19:06.528Z,0.34
2022-12-16T18:34:06.639Z,0.47
2022-12-16T18:49:06.698Z,0.70
2022-12-16T19:04:06.461Z,0.42
2022-12-16T19:19:06.623Z,0.41
2022-12-16T19:34:06.518Z,0.34
2022-12-16T19:49:06.721Z,0.64
2022-12-16T20:04:06.519Z,0.86
2022-12-16T20:19:06.817Z,0.62
2022-12-16T20:34:06.739Z,0.61
2022-12-16T20:49:06.746Z,1.00
2022-12-16T21:04:06.823Z,0.52
2022-12-16T21:19:06.833Z,0.61
2022-12-16T21:34:06.767Z,1.00
2022-12-16T21:49:07.036Z,0.63
2022-12-16T22:04:07.091Z,0.46
2022-12-16T22:19:09.633Z,0.84
2022-12-16T22:34:07.037Z,0.35
2022-12-16T22:49:09.855Z,0.61
2022-12-16T23:04:07.271Z,0.43
2022-12-16T23:19:07.222Z,0.87
2022-12-16T23:34:07.034Z,0.50
2022-12-16T23:49:06.899Z,0.42
